createdAt,value
2022-11-26T00:01:15.309Z,22.83
2022-11-26T00:03:43.010Z,19.27
2022-11-26T00:06:24.385Z,20.53
2022-11-26T00:08:51.996Z,21.03
2022-11-26T00:11:19.515Z,20.37
2022-11-26T00:13:47.082Z,22.10
2022-11-26T00:16:16.560Z,19.97
2022-11-26T00:18:44.577Z,20.20
2022-11-26T00:21:19.468Z,20.43
2022-11-26T00:23:47.108Z,20.77
2022-11-26T00:26:17.040Z,20.50
2022-11-26T00:28:51.402Z,21.60
2022-11-26T00:31:20.421Z,20.07
2022-11-26T00:33:48.048Z,21.60
2022-11-26T00:36:19.813Z,20.63
2022-11-26T00:38:48.150Z,19.97
2022-11-26T00:41:19.135Z,21.07
2022-11-26T00:43:47.320Z,20.27
2022-11-26T00:46:15.281Z,21.17
2022-11-26T00:48:44.186Z,21.67
2022-11-26T00:51:16.004Z,19.87
2022-11-26T00:53:44.604Z,20.53
2022-11-26T00:56:16.245Z,19.30
2022-11-26T00:58:43.831Z,21.23
2022-11-26T01:01:13.288Z,21.20
2022-11-26T01:03:42.899Z,19.77
2022-11-26T01:06:16.803Z,19.63
2022-11-26T01:08:44.963Z,20.83
2022-11-26T01:11:15.053Z,20.37
2022-11-26T01:13:43.877Z,19.13
2022-11-26T01:16:20.467Z,20.00
2022-11-26T01:18:48.708Z,20.80
2022-11-26T01:21:17.808Z,20.73
2022-11-26T01:23:45.988Z,21.17
2022-11-26T01:26:17.432Z,20.73
2022-11-26T01:28:45.906Z,20.93
2022-11-26T01:31:16.596Z,20.83
2022-11-26T01:33:44.711Z,19.63
2022-11-26T01:36:26.701Z,19.97
2022-11-26T01:38:55.362Z,18.77
2022-11-26T01:41:39.097Z,19.37
2022-11-26T01:44:09.251Z,20.47
2022-11-26T01:46:38.050Z,19.37
2022-11-26T01:49:19.171Z,20.43
2022-11-26T01:51:51.739Z,20.57
2022-11-26T01:54:19.640Z,20.77
2022-11-26T01:56:50.846Z,20.13
2022-11-26T01:59:22.346Z,20.67
2022-11-26T02:01:51.383Z,20.27
2022-11-26T02:04:22.774Z,20.00
2022-11-26T02:06:53.192Z,19.77
2022-11-26T02:09:21.447Z,20.87
2022-11-26T02:11:49.336Z,19.97
2022-11-26T02:14:19.904Z,20.77
2022-11-26T02:16:59.128Z,20.63
2022-11-26T02:20:20.934Z,21.37
2022-11-26T02:23:13.010Z,21.40
2022-11-26T02:26:09.480Z,21.53
2022-11-26T02:28:59.515Z,21.27
2022-11-26T02:31:32.864Z,20.37
2022-11-26T02:34:09.567Z,19.33
2022-11-26T02:36:42.588Z,19.03
2022-11-26T02:39:14.848Z,18.73
2022-11-26T02:41:44.504Z,18.57
2022-11-26T02:44:13.104Z,18.17
2022-11-26T02:46:43.447Z,16.70
2022-11-26T02:49:13.466Z,17.77
2022-11-26T02:51:42.571Z,18.80
2022-11-26T02:54:12.096Z,17.67
2022-11-26T02:56:41.335Z,17.40
2022-11-26T02:59:09.015Z,18.87
2022-11-26T03:01:40.120Z,19.60
2022-11-26T03:04:11.912Z,19.00
2022-11-26T03:06:40.844Z,20.13
2022-11-26T03:09:09.108Z,19.30
2022-11-26T03:11:36.681Z,21.53
2022-11-26T03:14:04.697Z,19.63
2022-11-26T03:16:32.284Z,20.57
2022-11-26T03:18:59.991Z,22.43
2022-11-26T03:21:28.884Z,21.93
2022-11-26T03:23:56.420Z,20.17
2022-11-26T03:26:23.930Z,21.07
2022-11-26T03:28:51.436Z,20.33
2022-11-26T03:31:19.091Z,20.20
2022-11-26T03:33:46.677Z,23.20
2022-11-26T03:36:14.215Z,19.87
2022-11-26T03:38:43.082Z,20.83
2022-11-26T03:41:10.694Z,20.97
2022-11-26T03:43:38.237Z,19.47
2022-11-26T03:46:06.076Z,16.93
2022-11-26T03:48:33.663Z,17.47
2022-11-26T03:51:01.499Z,17.17
2022-11-26T03:53:29.022Z,16.40
2022-11-26T03:55:57.901Z,16.93
2022-11-26T03:58:25.556Z,16.90
2022-11-26T04:00:53.142Z,18.17
2022-11-26T04:03:20.717Z,16.77
2022-11-26T04:05:48.280Z,16.90
2022-11-26T04:08:15.825Z,18.83
2022-11-26T04:10:43.391Z,15.90
2022-11-26T04:13:12.268Z,17.07
2022-11-26T04:15:39.809Z,16.00
2022-11-26T04:18:07.334Z,17.47
2022-11-26T04:20:34.887Z,17.00
2022-11-26T04:23:02.417Z,16.90
2022-11-26T04:25:29.975Z,16.67
2022-11-26T04:27:57.591Z,17.57
2022-11-26T04:30:27.530Z,17.67
2022-11-26T04:32:56.596Z,16.47
2022-11-26T04:35:24.294Z,17.97
2022-11-26T04:37:51.885Z,18.10
2022-11-26T04:40:19.609Z,17.37
2022-11-26T04:42:47.151Z,16.80
2022-11-26T04:45:14.730Z,17.13
2022-11-26T04:47:43.604Z,17.00
2022-11-26T04:50:12.616Z,19.13
2022-11-26T04:52:40.389Z,19.90
2022-11-26T04:55:08.428Z,18.97
2022-11-26T04:57:35.950Z,18.40
2022-11-26T05:00:03.547Z,16.97
2022-11-26T05:02:31.125Z,18.07
2022-11-26T05:05:00.065Z,17.63
2022-11-26T05:07:27.642Z,18.37
2022-11-26T05:09:55.363Z,20.13
2022-11-26T05:12:22.901Z,20.30
2022-11-26T05:14:50.425Z,18.67
2022-11-26T05:17:18.061Z,19.47
2022-11-26T05:19:45.575Z,19.53
2022-11-26T05:22:14.505Z,21.30
2022-11-26T05:24:42.043Z,20.17
2022-11-26T05:27:09.588Z,21.20
2022-11-26T05:29:37.142Z,21.53
2022-11-26T05:32:05.319Z,19.40
2022-11-26T05:34:32.963Z,19.80
2022-11-26T05:37:00.478Z,21.63
2022-11-26T05:39:29.516Z,20.20
2022-11-26T05:41:57.033Z,19.50
2022-11-26T05:44:24.562Z,19.57
2022-11-26T05:46:52.089Z,17.53
2022-11-26T05:49:19.650Z,19.63
2022-11-26T05:51:47.152Z,18.77
2022-11-26T05:54:15.579Z,18.40
2022-11-26T05:56:44.827Z,17.83
2022-11-26T05:59:12.409Z,19.23
2022-11-26T06:01:39.918Z,19.00
2022-11-26T06:04:07.518Z,20.37
2022-11-26T06:06:35.042Z,20.50
2022-11-26T06:09:02.672Z,20.97
2022-11-26T06:11:30.248Z,20.17
2022-11-26T06:13:59.127Z,20.17
2022-11-26T06:16:26.792Z,20.13
2022-11-26T06:18:54.436Z,21.20
2022-11-26T06:21:21.957Z,20.90
2022-11-26T06:23:55.836Z,18.10
2022-11-26T06:26:25.301Z,19.57
2022-11-26T06:28:52.858Z,25.37
2022-11-26T06:31:21.855Z,23.33
2022-11-26T06:33:49.480Z,26.13
2022-11-26T06:36:16.995Z,20.93
2022-11-26T06:38:44.515Z,20.33
2022-11-26T06:41:12.024Z,18.47
2022-11-26T06:43:39.554Z,19.27
2022-11-26T06:46:09.817Z,18.93
2022-11-26T06:48:39.665Z,19.17
2022-11-26T06:51:08.776Z,20.20
2022-11-26T06:53:36.334Z,18.17
2022-11-26T06:56:05.722Z,18.03
2022-11-26T06:58:33.469Z,20.20
2022-11-26T07:01:01.064Z,19.67
2022-11-26T07:03:33.247Z,18.40
2022-11-26T07:06:02.437Z,21.97
2022-11-26T07:08:30.016Z,20.27
2022-11-26T07:10:57.553Z,21.47
2022-11-26T07:13:25.076Z,19.97
2022-11-26T07:15:52.593Z,18.77
2022-11-26T07:18:20.116Z,20.10
2022-11-26T07:20:47.633Z,24.93
2022-11-26T07:23:16.451Z,21.00
2022-11-26T07:25:43.964Z,19.57
2022-11-26T07:28:11.488Z,19.60
2022-11-26T07:30:39.200Z,18.07
2022-11-26T07:33:06.737Z,17.20
2022-11-26T07:35:34.286Z,17.90
2022-11-26T07:38:01.815Z,18.07
2022-11-26T07:40:30.670Z,20.97
2022-11-26T07:43:00.516Z,19.10
2022-11-26T07:45:28.183Z,24.63
2022-11-26T07:47:55.728Z,20.07
2022-11-26T07:50:23.239Z,19.67
2022-11-26T07:52:52.668Z,21.53
2022-11-26T07:55:20.160Z,20.40
2022-11-26T07:57:49.059Z,20.23
2022-11-26T08:00:17.960Z,20.17
2022-11-26T08:02:45.512Z,19.03
2022-11-26T08:05:13.084Z,19.83
2022-11-26T08:07:40.592Z,17.20
2022-11-26T08:10:08.988Z,17.67
2022-11-26T08:12:36.559Z,15.77
2022-11-26T08:15:05.862Z,12.23
2022-11-26T08:17:33.377Z,12.53
2022-11-26T08:20:00.922Z,12.60
2022-11-26T08:22:30.212Z,12.57
2022-11-26T08:24:57.997Z,10.70
2022-11-26T08:27:25.739Z,10.23
2022-11-26T08:29:53.239Z,11.37
2022-11-26T08:32:22.127Z,10.20
2022-11-26T08:34:49.715Z,10.20
2022-11-26T08:37:17.246Z,10.30
2022-11-26T08:39:44.752Z,10.97
2022-11-26T08:42:12.283Z,11.13
2022-11-26T08:44:40.284Z,10.50
2022-11-26T08:47:08.005Z,9.23
2022-11-26T08:49:36.891Z,10.97
2022-11-26T08:52:04.631Z,9.93
2022-11-26T08:54:32.136Z,10.53
2022-11-26T08:56:59.660Z,11.53
2022-11-26T08:59:27.190Z,10.73
2022-11-26T09:01:54.795Z,9.60
2022-11-26T09:04:22.376Z,10.03
2022-11-26T09:06:51.257Z,10.20
2022-11-26T09:09:18.800Z,11.17
2022-11-26T09:11:48.996Z,12.37
2022-11-26T09:14:19.288Z,11.63
2022-11-26T09:16:47.137Z,12.30
2022-11-26T09:19:15.619Z,12.93
2022-11-26T09:21:43.421Z,12.53
2022-11-26T09:24:12.827Z,10.80
2022-11-26T09:26:40.928Z,13.03
2022-11-26T09:29:08.753Z,12.17
2022-11-26T09:31:36.330Z,12.90
2022-11-26T09:34:04.266Z,12.00
2022-11-26T09:36:32.222Z,12.73
2022-11-26T09:39:00.616Z,11.83
2022-11-26T09:41:41.043Z,10.90
2022-11-26T09:44:22.153Z,11.73
2022-11-26T09:47:13.061Z,12.97
2022-11-26T09:49:54.616Z,11.60
2022-11-26T09:52:25.572Z,10.17
2022-11-26T09:55:00.442Z,10.43
2022-11-26T09:57:34.694Z,9.60
2022-11-26T10:00:22.003Z,10.53
2022-11-26T10:02:52.071Z,11.43
2022-11-26T10:05:21.563Z,9.67
2022-11-26T10:08:02.388Z,10.30
2022-11-26T10:10:36.541Z,8.80
2022-11-26T10:13:19.810Z,9.10
2022-11-26T10:15:59.620Z,11.23
2022-11-26T10:18:38.850Z,11.73
2022-11-26T10:21:27.224Z,10.07
2022-11-26T10:24:15.326Z,9.60
2022-11-26T10:26:44.399Z,10.00
2022-11-26T10:29:23.176Z,9.77
2022-11-26T10:31:53.696Z,9.77
2022-11-26T10:34:29.281Z,10.88
2022-11-26T10:36:58.030Z,8.82
2022-11-26T10:39:25.528Z,8.02
2022-11-26T10:41:53.051Z,10.85
2022-11-26T10:44:36.942Z,8.53
2022-11-26T10:47:27.174Z,8.57
2022-11-26T10:49:56.248Z,8.10
2022-11-26T10:52:26.928Z,7.57
2022-11-26T10:55:11.137Z,15.70
2022-11-26T10:57:44.692Z,24.40
2022-11-26T11:03:17.276Z,11.23
2022-11-26T11:05:45.462Z,8.07
2022-11-26T11:08:28.744Z,7.77
2022-11-26T11:10:58.345Z,8.88
2022-11-26T11:13:40.894Z,7.35
2022-11-26T11:16:09.707Z,6.90
2022-11-26T11:18:39.616Z,6.70
2022-11-26T11:21:07.431Z,8.55
2022-11-26T11:24:06.567Z,7.25
2022-11-26T11:26:26.771Z,6.47
2022-11-26T11:28:56.499Z,7.97
2022-11-26T11:31:26.146Z,8.10
2022-11-26T11:34:14.023Z,7.20
2022-11-26T11:36:41.530Z,8.27
2022-11-26T11:39:29.070Z,7.47
2022-11-26T11:41:57.662Z,8.93
2022-11-26T11:44:27.743Z,8.57
2022-11-26T11:47:36.690Z,7.73
2022-11-26T11:50:17.857Z,8.33
2022-11-26T11:53:00.627Z,9.20
2022-11-26T11:55:39.743Z,11.70
2022-11-26T11:58:22.898Z,10.40
2022-11-26T12:00:55.488Z,7.40
2022-11-26T12:03:53.042Z,7.77
2022-11-26T12:06:33.909Z,7.43
2022-11-26T12:09:13.026Z,8.33
2022-11-26T12:11:51.615Z,8.03
2022-11-26T12:14:24.756Z,7.40
2022-11-26T12:16:55.814Z,7.23
2022-11-26T12:19:35.409Z,6.90
2022-11-26T12:22:11.763Z,6.10
2022-11-26T12:24:45.564Z,7.43
2022-11-26T12:27:24.960Z,7.00
2022-11-26T12:29:57.086Z,7.03
2022-11-26T12:32:32.230Z,7.00
2022-11-26T12:35:04.443Z,6.50
2022-11-26T12:37:37.198Z,7.70
2022-11-26T12:40:10.063Z,7.73
2022-11-26T12:42:45.780Z,6.87
2022-11-26T12:45:21.449Z,6.80
2022-11-26T12:47:55.165Z,6.50
2022-11-26T12:50:33.623Z,8.63
2022-11-26T12:53:14.661Z,8.50
2022-11-26T12:55:47.054Z,8.50
2022-11-26T12:58:18.956Z,8.63
2022-11-26T13:00:49.530Z,8.83
2022-11-26T13:03:19.495Z,7.50
2022-11-26T13:05:55.417Z,8.53
2022-11-26T13:08:41.645Z,7.47
2022-11-26T13:11:20.473Z,7.47
2022-11-26T13:13:54.340Z,8.03
2022-11-26T13:16:27.653Z,7.77
2022-11-26T13:19:00.649Z,8.37
2022-11-26T13:21:42.610Z,8.10
2022-11-26T13:24:25.555Z,8.87
2022-11-26T13:27:05.613Z,9.50
2022-11-26T13:30:00.952Z,8.30
2022-11-26T13:32:53.910Z,14.03
2022-11-26T13:35:38.487Z,10.93
2022-11-26T13:38:18.751Z,11.07
2022-11-26T13:41:05.004Z,11.30
2022-11-26T13:44:09.554Z,10.47
2022-11-26T13:46:41.258Z,10.87
2022-11-26T13:49:14.178Z,12.57
2022-11-26T13:51:48.074Z,11.83
2022-11-26T13:54:22.076Z,12.17
2022-11-26T13:56:58.842Z,13.30
2022-11-26T13:59:28.808Z,14.33
2022-11-26T14:01:57.157Z,12.97
2022-11-26T14:04:54.524Z,17.50
2022-11-26T14:07:22.399Z,15.93
2022-11-26T14:09:53.491Z,15.03
2022-11-26T14:12:23.951Z,18.83
2022-11-26T14:14:52.446Z,16.50
2022-11-26T14:17:32.391Z,17.00
2022-11-26T14:20:11.366Z,14.13
2022-11-26T14:22:40.032Z,14.37
2022-11-26T14:25:13.526Z,13.70
2022-11-26T14:27:50.118Z,13.40
2022-11-26T14:30:29.053Z,12.43
2022-11-26T14:33:10.910Z,15.17
2022-11-26T14:35:40.460Z,16.40
2022-11-26T14:38:27.296Z,15.93
2022-11-26T14:40:59.883Z,13.03
2022-11-26T14:43:29.080Z,11.93
2022-11-26T14:46:12.248Z,11.33
2022-11-26T14:48:43.930Z,12.43
2022-11-26T14:51:11.764Z,13.20
2022-11-26T14:53:47.797Z,14.70
2022-11-26T14:56:15.787Z,13.87
2022-11-26T14:58:47.879Z,15.90
2022-11-26T15:01:21.158Z,15.80
2022-11-26T15:04:01.569Z,16.20
2022-11-26T15:06:34.794Z,16.40
2022-11-26T15:09:07.177Z,17.90
2022-11-26T15:11:37.259Z,18.40
2022-11-26T15:14:06.275Z,18.90
2022-11-26T15:16:37.131Z,15.97
2022-11-26T15:19:06.592Z,12.17
2022-11-26T15:21:35.776Z,12.67
2022-11-26T15:24:08.933Z,16.07
2022-11-26T15:26:39.184Z,17.00
2022-11-26T15:32:02.236Z,16.43
2022-11-26T15:34:32.239Z,19.63
2022-11-26T15:36:59.952Z,17.57
2022-11-26T15:39:29.932Z,18.23
2022-11-26T15:42:02.865Z,18.40
2022-11-26T15:44:32.397Z,18.40
2022-11-26T15:47:02.143Z,23.07
2022-11-26T15:49:34.618Z,14.80
2022-11-26T15:52:04.496Z,16.20
2022-11-26T15:54:56.573Z,14.23
2022-11-26T15:57:28.519Z,14.50
2022-11-26T15:59:59.834Z,26.30
2022-11-26T16:02:31.085Z,23.13
2022-11-26T16:05:00.166Z,21.13
2022-11-26T16:07:30.291Z,16.27
2022-11-26T16:10:22.451Z,13.53
2022-11-26T16:13:10.156Z,12.17
2022-11-26T16:15:45.139Z,10.83
2022-11-26T16:18:18.746Z,11.53
2022-11-26T16:20:46.525Z,11.87
2022-11-26T16:23:22.890Z,13.37
2022-11-26T16:26:11.879Z,13.43
2022-11-26T16:28:39.428Z,13.07
2022-11-26T16:31:07.914Z,14.57
2022-11-26T16:33:36.880Z,13.80
2022-11-26T16:36:19.342Z,15.23
2022-11-26T16:38:47.169Z,14.47
2022-11-26T16:41:16.575Z,13.23
2022-11-26T16:43:44.116Z,14.00
2022-11-26T16:46:15.480Z,14.40
2022-11-26T16:48:46.469Z,26.67
2022-11-26T16:51:14.383Z,26.97
2022-11-26T16:53:42.243Z,23.97
2022-11-26T16:56:19.077Z,30.27
2022-11-26T16:58:46.975Z,27.00
2022-11-26T17:01:14.510Z,28.13
2022-11-26T17:03:42.993Z,29.77
2022-11-26T17:06:15.856Z,48.50
2022-11-26T17:08:49.216Z,98.90
2022-11-26T17:11:17.859Z,50.13
2022-11-26T17:13:45.365Z,38.40
2022-11-26T17:16:14.804Z,30.37
2022-11-26T17:18:42.507Z,18.57
2022-11-26T17:21:10.278Z,19.23
2022-11-26T17:23:39.177Z,19.87
2022-11-26T17:26:16.700Z,26.73
2022-11-26T17:28:44.250Z,23.53
2022-11-26T17:31:11.832Z,24.17
2022-11-26T17:33:39.492Z,57.90
2022-11-26T17:36:16.875Z,114.33
2022-11-26T17:38:46.773Z,89.20
2022-11-26T17:41:14.966Z,30.47
2022-11-26T17:43:43.074Z,21.40
2022-11-26T17:46:15.833Z,28.73
2022-11-26T17:48:43.712Z,73.87
2022-11-26T17:51:13.726Z,49.23
2022-11-26T17:53:41.641Z,47.40
2022-11-26T17:56:17.479Z,52.43
2022-11-26T17:58:45.244Z,48.13
2022-11-26T18:01:14.551Z,47.37
2022-11-26T18:03:42.487Z,46.20
2022-11-26T18:06:14.467Z,45.87
2022-11-26T18:08:42.126Z,50.73
2022-11-26T18:11:09.646Z,31.13
2022-11-26T18:13:38.519Z,36.10
2022-11-26T18:16:06.519Z,28.00
2022-11-26T18:18:34.034Z,33.60
2022-11-26T18:21:01.589Z,23.27
2022-11-26T18:23:29.097Z,29.03
2022-11-26T18:25:56.624Z,63.53
2022-11-26T18:28:24.196Z,43.40
2022-11-26T18:30:58.025Z,45.53
2022-11-26T18:33:25.602Z,38.83
2022-11-26T18:35:53.138Z,39.87
2022-11-26T18:38:20.776Z,39.23
2022-11-26T18:40:48.368Z,47.00
2022-11-26T18:43:15.896Z,66.50
2022-11-26T18:45:43.589Z,48.57
2022-11-26T18:48:12.498Z,46.80
2022-11-26T18:50:40.000Z,41.97
2022-11-26T18:53:07.529Z,39.47
2022-11-26T18:55:35.127Z,44.43
2022-11-26T18:58:07.743Z,43.53
2022-11-26T19:00:35.623Z,47.77
2022-11-26T19:03:03.153Z,78.83
2022-11-26T19:05:32.177Z,229.13
2022-11-26T19:07:59.726Z,218.20
2022-11-26T19:10:27.288Z,186.07
2022-11-26T19:12:54.824Z,185.67
2022-11-26T19:15:22.360Z,115.97
2022-11-26T19:17:49.888Z,124.40
2022-11-26T19:20:17.700Z,88.27
2022-11-26T19:22:46.627Z,63.83
2022-11-26T19:25:14.493Z,69.77
2022-11-26T19:27:42.054Z,58.13
2022-11-26T19:30:10.745Z,59.27
2022-11-26T19:32:38.276Z,77.53
2022-11-26T19:35:06.460Z,62.73
2022-11-26T19:37:34.166Z,57.63
2022-11-26T19:40:03.116Z,45.00
2022-11-26T19:42:30.651Z,70.07
2022-11-26T19:44:58.160Z,72.00
2022-11-26T19:47:25.691Z,77.07
2022-11-26T19:49:53.229Z,57.53
2022-11-26T19:52:20.753Z,45.53
2022-11-26T19:54:48.285Z,56.90
2022-11-26T19:57:17.139Z,48.63
2022-11-26T19:59:44.635Z,37.13
2022-11-26T20:02:12.249Z,36.70
2022-11-26T20:04:39.822Z,40.30
2022-11-26T20:07:07.340Z,44.83
2022-11-26T20:09:34.912Z,55.23
2022-11-26T20:12:02.442Z,42.90
2022-11-26T20:14:31.565Z,40.43
2022-11-26T20:17:01.076Z,44.63
2022-11-26T20:19:28.925Z,27.80
2022-11-26T20:21:56.452Z,30.10
2022-11-26T20:24:23.966Z,83.07
2022-11-26T20:26:51.721Z,100.33
2022-11-26T20:29:20.010Z,73.13
2022-11-26T20:31:50.500Z,113.20
2022-11-26T20:34:20.016Z,39.80
2022-11-26T20:36:47.922Z,36.73
2022-11-26T20:39:17.363Z,49.93
2022-11-26T20:41:45.525Z,30.63
2022-11-26T20:44:14.503Z,32.73
2022-11-26T20:46:42.640Z,60.57
2022-11-26T20:49:12.159Z,58.67
2022-11-26T20:51:40.110Z,49.27
2022-11-26T20:54:07.644Z,28.13
2022-11-26T20:56:35.354Z,33.20
2022-11-26T20:59:03.359Z,27.50
2022-11-26T21:01:31.548Z,33.90
2022-11-26T21:03:59.763Z,41.33
2022-11-26T21:06:30.672Z,30.30
2022-11-26T21:09:00.419Z,34.83
2022-11-26T21:11:28.273Z,32.30
2022-11-26T21:13:55.868Z,41.97
2022-11-26T21:16:23.510Z,32.23
2022-11-26T21:18:53.456Z,25.17
2022-11-26T21:21:21.187Z,30.13
2022-11-26T21:23:50.216Z,29.70
2022-11-26T21:26:20.173Z,31.07
2022-11-26T21:28:52.340Z,28.43
2022-11-26T21:31:21.341Z,33.83
2022-11-26T21:33:54.672Z,27.23
2022-11-26T21:36:23.804Z,29.00
2022-11-26T21:38:52.671Z,32.73
2022-11-26T21:41:20.738Z,40.30
2022-11-26T21:43:49.481Z,36.77
2022-11-26T21:46:19.220Z,37.97
2022-11-26T21:48:46.946Z,39.33
2022-11-26T21:51:17.546Z,42.67
2022-11-26T21:53:46.274Z,49.37
2022-11-26T21:56:16.510Z,50.50
2022-11-26T21:58:44.674Z,48.03
2022-11-26T22:01:13.431Z,49.17
2022-11-26T22:03:42.494Z,44.33
2022-11-26T22:06:10.336Z,40.70
2022-11-26T22:08:38.202Z,44.80
2022-11-26T22:11:10.296Z,45.47
2022-11-26T22:13:39.390Z,39.53
2022-11-26T22:16:08.754Z,42.70
2022-11-26T22:18:37.969Z,30.03
2022-11-26T22:21:07.552Z,43.17
2022-11-26T22:23:35.260Z,43.27
2022-11-26T22:26:02.803Z,33.10
2022-11-26T22:28:30.541Z,26.90
2022-11-26T22:30:59.697Z,34.53
2022-11-26T22:33:27.284Z,34.00
2022-11-26T22:35:54.820Z,35.00
2022-11-26T22:38:22.353Z,36.50
2022-11-26T22:40:49.887Z,34.83
2022-11-26T22:43:17.432Z,30.93
2022-11-26T22:45:45.020Z,36.00
2022-11-26T22:48:13.880Z,31.33
2022-11-26T22:50:41.433Z,24.77
2022-11-26T22:53:08.956Z,21.47
2022-11-26T22:55:36.498Z,22.00
2022-11-26T22:58:04.031Z,22.93
2022-11-26T23:00:51.917Z,25.07
2022-11-26T23:03:21.863Z,22.60
2022-11-26T23:05:50.232Z,25.07
2022-11-26T23:08:18.428Z,28.20
2022-11-26T23:10:46.009Z,24.73
2022-11-26T23:13:14.293Z,24.63
2022-11-26T23:15:44.864Z,22.37
2022-11-26T23:18:14.275Z,23.63
2022-11-26T23:20:43.988Z,27.47
2022-11-26T23:23:11.771Z,22.43
2022-11-26T23:25:40.382Z,20.73
2022-11-26T23:28:08.431Z,19.70
2022-11-26T23:30:36.723Z,20.97
2022-11-26T23:33:04.446Z,21.27
2022-11-26T23:35:31.998Z,20.90
2022-11-26T23:38:00.928Z,23.50
2022-11-26T23:40:28.483Z,20.67
2022-11-26T23:42:56.176Z,19.90
2022-11-26T23:45:23.726Z,18.40
2022-11-26T23:47:51.258Z,21.93
2022-11-26T23:50:18.802Z,24.17
2022-11-26T23:52:46.332Z,23.53
2022-11-26T23:55:20.469Z,25.40
2022-11-26T23:57:48.003Z,23.90
